createdAt,value
2022-12-11T00:00:45.790Z,81.05
2022-12-11T00:03:35.185Z,81.99
2022-12-11T00:06:07.629Z,81.92
2022-12-11T00:08:37.423Z,81.03
2022-12-11T00:11:10.289Z,81.27
2022-12-11T00:13:39.647Z,81.01
2022-12-11T00:16:09.214Z,81.25
2022-12-11T00:18:38.904Z,80.73
2022-12-11T00:21:12.097Z,80.25
2022-12-11T00:23:42.236Z,81.02
2022-12-11T00:26:15.516Z,80.68
2022-12-11T00:28:46.077Z,81.11
2022-12-11T00:31:17.284Z,81.25
2022-12-11T00:33:49.090Z,80.91
2022-12-11T00:36:20.449Z,80.59
2022-12-11T00:38:50.439Z,79.50
2022-12-11T00:41:21.484Z,78.87
2022-12-11T00:43:51.328Z,79.54
2022-12-11T00:46:20.622Z,80.03
2022-12-11T00:48:50.191Z,79.43
2022-12-11T00:51:19.826Z,79.04
2022-12-11T00:53:49.329Z,78.69
2022-12-11T00:56:23.086Z,78.99
2022-12-11T00:58:53.019Z,79.34
2022-12-11T01:01:24.109Z,78.58
2022-12-11T01:03:55.169Z,77.84
2022-12-11T01:06:26.283Z,78.25
2022-12-11T01:09:11.214Z,78.26
2022-12-11T01:11:43.220Z,79.00
2022-12-11T01:14:14.211Z,79.64
2022-12-11T01:16:43.410Z,79.08
2022-12-11T01:19:13.003Z,78.93
2022-12-11T01:21:42.308Z,78.66
2022-12-11T01:24:11.718Z,79.33
2022-12-11T01:26:42.374Z,80.12
2022-12-11T01:29:12.248Z,79.45
2022-12-11T01:31:41.343Z,78.76
2022-12-11T01:34:10.651Z,78.70
2022-12-11T01:36:39.822Z,79.24
2022-12-11T01:39:09.307Z,78.71
2022-12-11T01:41:38.656Z,79.75
2022-12-11T01:44:25.185Z,79.49
2022-12-11T01:46:54.484Z,79.05
2022-12-11T01:49:27.327Z,79.01
2022-12-11T01:52:02.025Z,79.09
2022-12-11T01:54:32.672Z,79.72
2022-12-11T01:57:05.391Z,80.39
2022-12-11T01:59:39.218Z,80.02
2022-12-11T02:02:13.362Z,80.12
2022-12-11T02:04:45.647Z,79.59
2022-12-11T02:07:15.068Z,79.75
2022-12-11T02:09:47.412Z,79.76
2022-12-11T02:12:25.961Z,79.69
2022-12-11T02:15:07.604Z,78.92
2022-12-11T02:17:42.814Z,78.50
2022-12-11T02:20:18.911Z,79.60
2022-12-11T02:23:10.476Z,79.68
2022-12-11T02:25:49.594Z,79.54
2022-12-11T02:28:26.499Z,79.10
2022-12-11T02:31:02.208Z,78.36
2022-12-11T02:33:38.835Z,80.30
2022-12-11T02:36:10.644Z,80.25
2022-12-11T02:38:43.368Z,78.96
2022-12-11T02:41:13.811Z,78.84
2022-12-11T02:43:45.734Z,78.93
2022-12-11T02:46:16.515Z,78.65
2022-12-11T02:48:47.696Z,78.65
2022-12-11T02:51:19.808Z,78.02
2022-12-11T02:53:50.701Z,78.38
2022-12-11T02:56:25.460Z,78.42
2022-12-11T02:59:00.839Z,79.35
2022-12-11T03:01:30.216Z,79.18
2022-12-11T03:04:00.205Z,78.67
2022-12-11T03:06:36.203Z,78.78
2022-12-11T03:09:06.159Z,79.51
2022-12-11T03:11:35.435Z,79.31
2022-12-11T03:14:06.430Z,78.81
2022-12-11T03:16:38.593Z,78.58
2022-12-11T03:19:18.449Z,78.70
2022-12-11T03:21:54.508Z,78.43
2022-12-11T03:24:25.754Z,80.21
2022-12-11T03:27:01.132Z,79.52
2022-12-11T03:29:37.728Z,79.61
2022-12-11T03:36:34.796Z,79.03
2022-12-11T03:39:08.088Z,79.94
2022-12-11T03:41:40.975Z,79.71
2022-12-11T03:44:10.936Z,79.79
2022-12-11T03:46:45.727Z,79.49
2022-12-11T03:49:18.538Z,79.78
2022-12-11T03:51:51.818Z,79.87
2022-12-11T03:54:21.546Z,79.66
2022-12-11T03:56:52.774Z,78.76
2022-12-11T03:59:21.856Z,78.68
2022-12-11T04:01:52.769Z,79.49
2022-12-11T04:04:22.034Z,79.88
2022-12-11T04:06:51.510Z,79.83
2022-12-11T04:09:20.557Z,79.39
2022-12-11T04:11:49.885Z,79.29
2022-12-11T04:14:36.288Z,80.52
2022-12-11T04:17:07.236Z,81.11
2022-12-11T04:19:53.899Z,81.01
2022-12-11T04:22:40.766Z,81.21
2022-12-11T04:25:10.619Z,81.25
2022-12-11T04:27:56.771Z,82.05
2022-12-11T04:30:33.800Z,80.89
2022-12-11T04:33:06.006Z,81.49
2022-12-11T04:35:35.353Z,81.92
2022-12-11T04:38:04.719Z,81.04
2022-12-11T04:40:33.811Z,81.66
2022-12-11T04:43:03.229Z,81.51
2022-12-11T04:45:32.318Z,81.99
2022-12-11T04:48:01.688Z,81.89
2022-12-11T04:50:32.243Z,81.45
2022-12-11T04:53:01.712Z,81.63
2022-12-11T04:55:30.835Z,80.96
2022-12-11T04:58:00.159Z,80.40
2022-12-11T05:00:29.213Z,80.93
2022-12-11T05:02:58.602Z,81.55
2022-12-11T05:05:27.723Z,81.08
2022-12-11T05:07:58.592Z,81.66
2022-12-11T05:10:27.623Z,81.74
2022-12-11T05:12:56.903Z,81.37
2022-12-11T05:15:25.996Z,80.14
2022-12-11T05:17:55.357Z,80.67
2022-12-11T05:20:24.744Z,80.80
2022-12-11T05:22:54.107Z,81.09
2022-12-11T05:25:24.515Z,80.98
2022-12-11T05:27:53.982Z,80.13
2022-12-11T05:30:23.214Z,80.44
2022-12-11T05:32:52.585Z,80.13
2022-12-11T05:35:21.734Z,80.64
2022-12-11T05:37:51.092Z,81.26
2022-12-11T05:40:20.276Z,81.37
2022-12-11T05:42:51.879Z,80.78
2022-12-11T05:45:21.021Z,80.99
2022-12-11T05:47:50.671Z,80.12
2022-12-11T05:50:19.746Z,79.24
2022-12-11T05:52:49.295Z,80.17
2022-12-11T05:55:18.580Z,80.60
2022-12-11T05:57:47.884Z,80.82
2022-12-11T06:00:18.467Z,81.45
2022-12-11T06:02:47.907Z,81.48
2022-12-11T06:05:17.278Z,81.93
2022-12-11T06:07:46.691Z,81.57
2022-12-11T06:10:15.765Z,81.36
2022-12-11T06:12:45.160Z,81.47
2022-12-11T06:15:14.209Z,81.38
2022-12-11T06:17:44.917Z,80.81
2022-12-11T06:20:14.118Z,79.91
2022-12-11T06:22:43.695Z,80.50
2022-12-11T06:25:13.354Z,80.81
2022-12-11T06:27:43.020Z,81.45
2022-12-11T06:30:13.077Z,81.22
2022-12-11T06:32:44.021Z,81.04
2022-12-11T06:35:13.830Z,81.54
2022-12-11T06:37:43.395Z,80.73
2022-12-11T06:40:13.705Z,80.99
2022-12-11T06:42:43.161Z,80.77
2022-12-11T06:45:13.008Z,80.43
2022-12-11T06:47:43.893Z,81.56
2022-12-11T06:50:13.059Z,81.04
2022-12-11T06:52:42.577Z,81.35
2022-12-11T06:55:12.101Z,81.22
2022-12-11T06:57:41.583Z,81.20
2022-12-11T07:00:11.992Z,82.16
2022-12-11T07:02:41.664Z,81.82
2022-12-11T07:05:12.685Z,81.05
2022-12-11T07:07:42.659Z,81.60
2022-12-11T07:10:12.074Z,80.70
2022-12-11T07:12:41.678Z,80.22
2022-12-11T07:15:11.832Z,81.23
2022-12-11T07:17:41.407Z,81.73
2022-12-11T07:20:12.766Z,81.34
2022-12-11T07:22:46.444Z,82.15
2022-12-11T07:25:16.364Z,81.69
2022-12-11T07:27:45.740Z,80.93
2022-12-11T07:30:15.646Z,81.61
2022-12-11T07:32:45.157Z,81.59
2022-12-11T07:35:15.796Z,81.45
2022-12-11T07:37:45.983Z,82.39
2022-12-11T07:40:15.249Z,82.21
2022-12-11T07:42:46.434Z,81.86
2022-12-11T07:45:15.662Z,81.84
2022-12-11T07:47:44.908Z,81.54
2022-12-11T07:50:15.689Z,82.18
2022-12-11T07:52:45.121Z,83.29
2022-12-11T07:55:14.660Z,83.43
2022-12-11T07:57:44.098Z,83.91
2022-12-11T08:00:14.052Z,83.96
2022-12-11T08:02:43.861Z,83.93
2022-12-11T08:05:14.491Z,84.06
2022-12-11T08:07:44.027Z,83.80
2022-12-11T08:10:13.289Z,83.75
2022-12-11T08:12:42.997Z,83.66
2022-12-11T08:15:13.036Z,83.11
2022-12-11T08:17:42.532Z,82.66
2022-12-11T08:20:12.327Z,82.90
2022-12-11T08:22:43.306Z,83.20
2022-12-11T08:25:12.765Z,82.33
2022-12-11T08:27:42.693Z,82.79
2022-12-11T08:30:12.789Z,82.64
2022-12-11T08:32:42.270Z,82.73
2022-12-11T08:35:11.717Z,82.28
2022-12-11T08:37:42.718Z,83.13
2022-12-11T08:40:14.287Z,82.84
2022-12-11T08:42:43.712Z,82.91
2022-12-11T08:45:13.335Z,82.62
2022-12-11T08:47:43.142Z,83.32
2022-12-11T08:50:12.472Z,83.42
2022-12-11T08:52:43.245Z,83.09
2022-12-11T08:55:13.125Z,82.94
2022-12-11T08:57:43.196Z,82.41
2022-12-11T09:00:15.362Z,81.35
2022-12-11T09:02:45.037Z,80.91
2022-12-11T09:05:14.305Z,81.55
2022-12-11T09:07:45.722Z,81.82
2022-12-11T09:10:14.750Z,81.09
2022-12-11T09:12:44.195Z,81.40
2022-12-11T09:15:13.846Z,81.00
2022-12-11T09:17:43.346Z,81.42
2022-12-11T09:20:13.143Z,81.19
2022-12-11T09:22:43.121Z,80.92
2022-12-11T09:25:13.877Z,81.20
2022-12-11T09:27:43.532Z,80.64
2022-12-11T09:30:13.238Z,81.17
2022-12-11T09:32:42.519Z,81.51
2022-12-11T09:35:12.487Z,80.91
2022-12-11T09:37:42.285Z,80.47
2022-12-11T09:40:14.907Z,81.02
2022-12-11T09:42:54.353Z,81.32
2022-12-11T09:45:23.719Z,80.92
2022-12-11T09:47:56.510Z,81.18
2022-12-11T09:50:28.198Z,80.58
2022-12-11T09:53:08.955Z,80.03
2022-12-11T09:55:49.149Z,79.75
2022-12-11T09:58:29.068Z,80.14
2022-12-11T10:01:04.798Z,79.91
2022-12-11T10:03:58.524Z,80.50
2022-12-11T10:06:34.365Z,80.64
2022-12-11T10:09:13.366Z,79.65
2022-12-11T10:11:57.572Z,79.34
2022-12-11T10:14:37.656Z,79.75
2022-12-11T10:17:13.580Z,80.61
2022-12-11T10:19:44.148Z,80.83
2022-12-11T10:22:20.214Z,80.52
2022-12-11T10:25:12.807Z,80.16
2022-12-11T10:27:44.859Z,79.36
2022-12-11T10:30:18.730Z,80.71
2022-12-11T10:32:54.177Z,81.33
2022-12-11T10:35:34.819Z,81.51
2022-12-11T10:38:16.212Z,81.72
2022-12-11T10:40:47.784Z,81.96
2022-12-11T10:43:18.628Z,82.65
2022-12-11T10:45:55.543Z,82.03
2022-12-11T10:48:25.723Z,82.57
2022-12-11T10:51:01.192Z,82.53
2022-12-11T10:53:30.659Z,83.26
2022-12-11T10:56:00.980Z,83.07
2022-12-11T10:58:34.373Z,83.86
2022-12-11T11:01:10.963Z,83.48
2022-12-11T11:03:54.726Z,83.62
2022-12-11T11:06:25.850Z,84.56
2022-12-11T11:08:58.281Z,83.84
2022-12-11T11:11:33.881Z,82.65
2022-12-11T11:14:16.873Z,82.38
2022-12-11T11:16:48.764Z,83.72
2022-12-11T11:19:25.571Z,82.80
2022-12-11T11:21:57.667Z,82.16
2022-12-11T11:24:31.076Z,81.46
2022-12-11T11:27:15.969Z,81.40
2022-12-11T11:29:51.678Z,80.99
2022-12-11T11:32:24.888Z,80.80
2022-12-11T11:34:54.038Z,80.51
2022-12-11T11:37:28.534Z,80.71
2022-12-11T11:40:04.391Z,79.40
2022-12-11T11:42:44.197Z,80.58
2022-12-11T11:45:19.240Z,80.38
2022-12-11T11:47:59.717Z,80.14
2022-12-11T11:50:34.873Z,80.05
2022-12-11T11:53:11.613Z,81.21
2022-12-11T11:55:47.911Z,80.39
2022-12-11T11:58:22.975Z,80.51
2022-12-11T12:00:55.818Z,80.26
2022-12-11T12:03:26.767Z,79.48
2022-12-11T12:06:00.953Z,79.95
2022-12-11T12:08:45.544Z,79.59
2022-12-11T12:11:26.049Z,79.66
2022-12-11T12:14:22.766Z,78.92
2022-12-11T12:17:07.675Z,78.35
2022-12-11T12:19:49.175Z,78.69
2022-12-11T12:22:32.617Z,78.62
2022-12-11T12:25:12.141Z,78.22
2022-12-11T12:27:52.590Z,79.29
2022-12-11T12:30:24.075Z,80.16
2022-12-11T12:33:16.456Z,80.11
2022-12-11T12:35:55.194Z,79.34
2022-12-11T12:38:34.340Z,80.47
2022-12-11T12:41:15.985Z,79.74
2022-12-11T12:44:11.253Z,79.04
2022-12-11T12:46:54.349Z,78.33
2022-12-11T12:49:36.912Z,78.57
2022-12-11T12:52:08.455Z,78.04
2022-12-11T12:54:38.736Z,77.67
2022-12-11T12:57:08.551Z,77.60
2022-12-11T12:59:37.599Z,78.39
2022-12-11T13:02:15.251Z,78.17
2022-12-11T13:04:56.929Z,79.02
2022-12-11T13:07:30.786Z,78.84
2022-12-11T13:10:08.649Z,77.97
2022-12-11T13:12:46.682Z,78.42
2022-12-11T13:15:36.007Z,79.77
2022-12-11T13:18:27.213Z,79.63
2022-12-11T13:20:57.714Z,80.12
2022-12-11T13:23:31.147Z,79.20
2022-12-11T13:26:02.105Z,78.85
2022-12-11T13:28:34.983Z,78.63
2022-12-11T13:31:28.391Z,78.93
2022-12-11T13:33:59.624Z,79.20
2022-12-11T13:36:36.235Z,78.94
2022-12-11T13:39:10.975Z,79.38
2022-12-11T13:41:41.449Z,78.19
2022-12-11T13:44:21.196Z,78.30
2022-12-11T13:46:53.264Z,78.20
2022-12-11T13:49:26.831Z,78.81
2022-12-11T13:52:01.991Z,78.46
2022-12-11T13:54:32.891Z,78.70
2022-12-11T13:57:05.223Z,78.73
2022-12-11T13:59:36.906Z,78.58
2022-12-11T14:02:15.382Z,78.40
2022-12-11T14:04:45.297Z,79.12
2022-12-11T14:07:21.511Z,79.65
2022-12-11T14:09:51.070Z,79.42
2022-12-11T14:12:22.944Z,79.96
2022-12-11T14:14:57.127Z,79.29
2022-12-11T14:17:29.157Z,79.88
2022-12-11T14:20:01.763Z,79.32
2022-12-11T14:22:32.735Z,80.49
2022-12-11T14:25:04.154Z,80.01
2022-12-11T14:27:33.260Z,80.24
2022-12-11T14:30:12.742Z,80.12
2022-12-11T14:32:46.149Z,79.82
2022-12-11T14:35:25.339Z,80.32
2022-12-11T14:37:57.403Z,79.14
2022-12-11T14:40:29.897Z,79.59
2022-12-11T14:43:03.231Z,79.51
2022-12-11T14:45:35.675Z,79.73
2022-12-11T14:48:12.006Z,79.23
2022-12-11T14:50:47.449Z,79.17
2022-12-11T14:53:23.060Z,79.13
2022-12-11T14:55:53.718Z,79.48
2022-12-11T14:58:26.595Z,78.83
2022-12-11T15:01:00.593Z,79.03
2022-12-11T15:03:34.418Z,78.51
2022-12-11T15:06:22.264Z,78.90
2022-12-11T15:08:53.375Z,78.94
2022-12-11T15:11:25.030Z,79.21
2022-12-11T15:13:56.866Z,78.97
2022-12-11T15:16:29.295Z,79.51
2022-12-11T15:18:59.007Z,79.48
2022-12-11T15:21:32.149Z,78.99
2022-12-11T15:24:05.024Z,78.96
2022-12-11T15:26:36.861Z,79.07
2022-12-11T15:29:08.243Z,79.18
2022-12-11T15:31:37.710Z,79.51
2022-12-11T15:34:23.020Z,79.45
2022-12-11T15:36:52.723Z,78.79
2022-12-11T15:39:23.836Z,78.80
2022-12-11T15:41:54.767Z,79.29
2022-12-11T15:44:25.026Z,78.67
2022-12-11T15:46:54.534Z,79.06
2022-12-11T15:49:24.754Z,78.69
2022-12-11T15:51:54.701Z,78.86
2022-12-11T15:54:25.302Z,78.64
2022-12-11T15:56:54.590Z,78.04
2022-12-11T15:59:23.945Z,78.12
2022-12-11T16:01:53.488Z,78.11
2022-12-11T16:04:22.619Z,77.72
2022-12-11T16:06:52.246Z,77.27
2022-12-11T16:09:21.304Z,77.30
2022-12-11T16:11:52.024Z,77.33
2022-12-11T16:14:21.217Z,77.03
2022-12-11T16:16:50.544Z,76.26
2022-12-11T16:19:19.890Z,76.34
2022-12-11T16:21:49.482Z,76.51
2022-12-11T16:24:19.049Z,75.77
2022-12-11T16:26:48.850Z,76.39
2022-12-11T16:29:19.682Z,76.17
2022-12-11T16:31:49.279Z,76.33
2022-12-11T16:34:18.778Z,76.22
2022-12-11T16:36:48.328Z,76.42
2022-12-11T16:39:17.512Z,76.15
2022-12-11T16:41:47.108Z,75.84
2022-12-11T16:44:20.022Z,76.26
2022-12-11T16:46:49.750Z,75.60
2022-12-11T16:49:19.427Z,75.86
2022-12-11T16:51:49.747Z,75.84
2022-12-11T16:54:19.445Z,75.64
2022-12-11T16:56:48.991Z,75.80
2022-12-11T16:59:19.742Z,75.50
2022-12-11T17:01:50.658Z,74.47
2022-12-11T17:04:20.044Z,75.03
2022-12-11T17:06:50.367Z,75.11
2022-12-11T17:09:19.546Z,74.66
2022-12-11T17:11:49.222Z,74.43
2022-12-11T17:14:20.435Z,74.07
2022-12-11T17:16:50.066Z,73.90
2022-12-11T17:19:19.828Z,73.34
2022-12-11T17:21:51.733Z,73.24
2022-12-11T17:24:21.417Z,73.48
2022-12-11T17:26:50.945Z,73.53
2022-12-11T17:29:22.245Z,72.91
2022-12-11T17:31:52.015Z,73.05
2022-12-11T17:34:21.126Z,73.23
2022-12-11T17:36:51.421Z,72.75
2022-12-11T17:39:20.431Z,73.14
2022-12-11T17:41:49.934Z,73.08
2022-12-11T17:44:20.536Z,72.60
2022-12-11T17:46:49.877Z,72.99
2022-12-11T17:49:19.311Z,71.98
2022-12-11T17:51:49.159Z,72.49
2022-12-11T17:54:18.372Z,71.99
2022-12-11T17:56:47.779Z,72.23
2022-12-11T17:59:17.430Z,71.57
2022-12-11T18:01:49.246Z,71.87
2022-12-11T18:04:18.399Z,71.83
2022-12-11T18:06:47.797Z,71.82
2022-12-11T18:09:16.916Z,72.17
2022-12-11T18:11:46.616Z,71.62
2022-12-11T18:14:17.592Z,71.87
2022-12-11T18:16:48.836Z,71.92
2022-12-11T18:19:19.497Z,72.42
2022-12-11T18:21:49.017Z,72.12
2022-12-11T18:24:18.174Z,72.02
2022-12-11T18:26:47.741Z,72.17
2022-12-11T18:29:16.917Z,71.99
2022-12-11T18:31:46.468Z,72.42
2022-12-11T18:34:17.251Z,72.17
2022-12-11T18:36:46.683Z,71.40
2022-12-11T18:39:16.006Z,71.60
2022-12-11T18:41:53.871Z,72.36
2022-12-11T18:44:33.258Z,72.80
2022-12-11T18:47:02.713Z,72.28
2022-12-11T18:49:33.278Z,71.98
2022-12-11T18:52:03.456Z,72.52
2022-12-11T18:54:32.694Z,72.52
2022-12-11T18:57:02.436Z,72.47
2022-12-11T18:59:31.768Z,72.20
2022-12-11T19:02:01.766Z,72.80
2022-12-11T19:04:32.337Z,72.82
2022-12-11T19:07:02.306Z,73.21
2022-12-11T19:09:35.410Z,73.05
2022-12-11T19:12:07.959Z,72.84
2022-12-11T19:14:37.211Z,73.02
2022-12-11T19:17:06.674Z,71.90
2022-12-11T19:19:37.157Z,71.38
2022-12-11T19:22:10.564Z,71.55
2022-12-11T19:24:40.021Z,71.49
2022-12-11T19:27:13.528Z,70.77
2022-12-11T19:29:43.109Z,70.80
2022-12-11T19:32:12.470Z,71.03
2022-12-11T19:34:43.068Z,71.24
2022-12-11T19:37:14.066Z,72.69
2022-12-11T19:39:43.218Z,72.04
2022-12-11T19:42:14.777Z,73.31
2022-12-11T19:44:44.235Z,73.19
2022-12-11T19:47:14.099Z,73.23
2022-12-11T19:49:44.603Z,73.58
2022-12-11T19:52:14.436Z,73.04
2022-12-11T19:54:43.488Z,72.60
2022-12-11T19:57:12.959Z,72.85
2022-12-11T19:59:42.040Z,73.28
2022-12-11T20:02:12.359Z,73.34
2022-12-11T20:04:44.255Z,73.04
2022-12-11T20:07:13.809Z,72.98
2022-12-11T20:09:43.000Z,72.86
2022-12-11T20:12:12.711Z,73.48
2022-12-11T20:14:42.327Z,73.08
2022-12-11T20:17:14.488Z,72.81
2022-12-11T20:19:45.407Z,73.22
2022-12-11T20:22:15.008Z,73.16
2022-12-11T20:24:45.025Z,72.67
2022-12-11T20:27:14.574Z,72.79
2022-12-11T20:29:43.836Z,73.20
2022-12-11T20:32:13.454Z,73.87
2022-12-11T20:34:43.962Z,73.92
2022-12-11T20:37:13.610Z,73.86
2022-12-11T20:39:42.824Z,74.07
2022-12-11T20:42:12.608Z,73.41
2022-12-11T20:44:47.276Z,73.71
2022-12-11T20:47:20.040Z,73.46
2022-12-11T20:49:51.392Z,74.05
2022-12-11T20:52:21.261Z,74.20
2022-12-11T20:54:50.337Z,73.66
2022-12-11T20:57:19.791Z,73.61
2022-12-11T20:59:49.651Z,74.55
2022-12-11T21:02:19.160Z,73.87
2022-12-11T21:04:50.655Z,74.04
2022-12-11T21:07:20.476Z,74.05
2022-12-11T21:09:49.610Z,73.81
2022-12-11T21:12:19.249Z,73.95
2022-12-11T21:14:48.326Z,73.74
2022-12-11T21:17:17.868Z,73.96
2022-12-11T21:19:47.140Z,73.58
2022-12-11T21:22:17.947Z,73.45
2022-12-11T21:24:47.297Z,72.99
2022-12-11T21:27:16.772Z,72.52
2022-12-11T21:29:45.779Z,72.53
2022-12-11T21:32:15.202Z,72.69
2022-12-11T21:34:44.308Z,72.89
2022-12-11T21:37:13.677Z,73.10
2022-12-11T21:39:44.094Z,73.52
2022-12-11T21:42:13.411Z,74.26
2022-12-11T21:47:32.224Z,74.39
2022-12-11T21:50:01.368Z,74.07
2022-12-11T21:52:31.141Z,74.26
2022-12-11T21:55:01.647Z,74.50
2022-12-11T21:57:30.980Z,74.85
2022-12-11T22:00:00.913Z,75.08
2022-12-11T22:02:30.428Z,74.60
2022-12-11T22:05:01.838Z,74.43
2022-12-11T22:07:31.212Z,73.54
2022-12-11T22:10:01.676Z,72.38
2022-12-11T22:12:31.234Z,72.24
2022-12-11T22:15:00.403Z,71.83
2022-12-11T22:17:29.846Z,72.42
2022-12-11T22:19:58.909Z,72.71
2022-12-11T22:22:28.196Z,72.58
2022-12-11T22:24:57.634Z,72.26
2022-12-11T22:27:28.480Z,73.50
2022-12-11T22:29:57.671Z,73.41
2022-12-11T22:32:27.547Z,74.14
2022-12-11T22:34:57.885Z,74.90
2022-12-11T22:37:27.688Z,74.10
2022-12-11T22:39:57.429Z,73.69
2022-12-11T22:42:28.353Z,73.13
2022-12-11T22:44:57.470Z,73.63
2022-12-11T22:47:27.356Z,73.18
2022-12-11T22:49:56.504Z,72.91
2022-12-11T22:52:25.917Z,72.50
2022-12-11T22:54:55.055Z,73.38
2022-12-11T22:57:24.467Z,72.69
2022-12-11T22:59:55.015Z,72.67
2022-12-11T23:02:24.743Z,72.55
2022-12-11T23:04:53.901Z,72.61
2022-12-11T23:07:23.526Z,72.50
2022-12-11T23:09:52.653Z,72.53
2022-12-11T23:12:23.612Z,72.82
2022-12-11T23:14:54.071Z,72.30
2022-12-11T23:17:23.463Z,72.56
2022-12-11T23:19:52.667Z,72.32
2022-12-11T23:22:22.034Z,71.89
2022-12-11T23:24:51.219Z,71.44
2022-12-11T23:27:20.633Z,71.32
2022-12-11T23:29:49.752Z,71.26
2022-12-11T23:32:20.565Z,71.61
2022-12-11T23:34:50.502Z,71.94
2022-12-11T23:37:19.781Z,71.98
2022-12-11T23:39:49.042Z,72.67
2022-12-11T23:42:18.393Z,72.73
2022-12-11T23:44:47.750Z,72.05
2022-12-11T23:47:17.296Z,71.89
2022-12-11T23:49:47.689Z,70.77
2022-12-11T23:52:17.017Z,70.10
2022-12-11T23:54:46.527Z,69.90
2022-12-11T23:57:16.030Z,69.41
2022-12-11T23:59:45.128Z,69.08
